createdAt,value
2022-10-19T00:02:11.486Z,11.44
2022-10-19T00:04:38.168Z,11.51
2022-10-19T00:07:04.781Z,11.58
2022-10-19T00:09:31.413Z,11.60
2022-10-19T00:11:58.050Z,11.70
2022-10-19T00:14:25.175Z,11.78
2022-10-19T00:16:52.762Z,11.82
2022-10-19T00:19:23.002Z,11.86
2022-10-19T00:24:21.997Z,11.99
2022-10-19T00:26:48.962Z,12.03
2022-10-19T00:29:16.581Z,12.07
2022-10-19T00:31:43.310Z,12.10
2022-10-19T00:34:10.054Z,12.10
2022-10-19T00:36:40.063Z,12.14
2022-10-19T00:39:09.016Z,12.16
2022-10-19T00:41:36.462Z,12.16
2022-10-19T00:44:13.995Z,12.21
2022-10-19T00:46:43.801Z,12.16
2022-10-19T00:49:20.102Z,12.14
2022-10-19T00:51:51.083Z,12.13
2022-10-19T00:54:18.637Z,12.11
2022-10-19T00:56:47.895Z,12.11
2022-10-19T00:59:16.676Z,12.09
2022-10-19T01:01:45.291Z,12.07
2022-10-19T01:04:12.819Z,12.09
2022-10-19T01:06:40.978Z,12.21
2022-10-19T01:09:08.339Z,12.13
2022-10-19T01:11:58.416Z,12.15
2022-10-19T01:14:44.606Z,12.11
2022-10-19T01:17:22.825Z,12.13
2022-10-19T01:20:18.855Z,12.10
2022-10-19T01:23:00.375Z,12.04
2022-10-19T01:26:01.078Z,12.00
2022-10-19T01:28:48.865Z,11.94
2022-10-19T01:31:34.119Z,11.82
2022-10-19T01:34:12.374Z,11.77
2022-10-19T01:36:48.615Z,11.70
2022-10-19T01:39:24.006Z,11.66
2022-10-19T01:42:02.862Z,11.62
2022-10-19T01:44:39.831Z,11.59
2022-10-19T01:47:11.225Z,11.50
2022-10-19T01:49:52.706Z,11.43
2022-10-19T01:52:22.001Z,11.38
2022-10-19T01:54:52.821Z,11.39
2022-10-19T01:57:29.963Z,11.34
2022-10-19T01:59:57.949Z,11.24
2022-10-19T02:02:27.961Z,11.14
2022-10-19T02:04:56.904Z,11.10
2022-10-19T02:07:25.417Z,11.05
2022-10-19T02:09:52.125Z,10.95
2022-10-19T02:12:20.419Z,10.93
2022-10-19T02:14:50.793Z,10.87
2022-10-19T02:17:24.037Z,10.80
2022-10-19T02:19:52.520Z,10.68
2022-10-19T02:22:19.419Z,10.63
2022-10-19T02:24:46.052Z,10.63
2022-10-19T02:27:12.899Z,10.61
2022-10-19T02:29:40.262Z,10.61
2022-10-19T02:32:07.542Z,10.58
2022-10-19T02:34:36.660Z,10.57
2022-10-19T02:37:03.567Z,10.61
2022-10-19T02:39:30.312Z,10.76
2022-10-19T02:42:17.748Z,10.67
2022-10-19T02:44:51.677Z,10.66
2022-10-19T02:47:34.581Z,10.60
2022-10-19T02:50:01.658Z,10.56
2022-10-19T02:52:28.374Z,10.53
2022-10-19T02:54:54.955Z,10.52
2022-10-19T02:57:23.901Z,10.48
2022-10-19T02:59:52.137Z,10.41
2022-10-19T03:02:20.447Z,10.39
2022-10-19T03:07:21.090Z,10.33
2022-10-19T03:09:48.204Z,10.51
2022-10-19T03:12:15.636Z,10.42
2022-10-19T03:14:42.726Z,10.30
2022-10-19T03:17:09.997Z,10.23
2022-10-19T03:19:37.504Z,10.15
2022-10-19T03:22:04.933Z,10.08
2022-10-19T03:24:32.110Z,10.03
2022-10-19T03:27:01.639Z,10.05
2022-10-19T03:29:28.263Z,10.08
2022-10-19T03:31:55.544Z,10.07
2022-10-19T03:34:22.312Z,9.97
2022-10-19T03:36:48.957Z,9.94
2022-10-19T03:39:17.416Z,9.87
2022-10-19T03:41:44.538Z,9.89
2022-10-19T03:44:11.979Z,9.85
2022-10-19T03:46:39.386Z,9.87
2022-10-19T03:49:06.939Z,9.90
2022-10-19T03:51:34.036Z,9.92
2022-10-19T03:54:06.585Z,10.00
2022-10-19T03:56:35.254Z,10.06
2022-10-19T03:59:03.905Z,10.15
2022-10-19T04:01:39.705Z,10.25
2022-10-19T04:04:09.853Z,10.46
2022-10-19T04:06:39.504Z,10.46
2022-10-19T04:09:07.589Z,10.51
2022-10-19T04:11:34.727Z,10.48
2022-10-19T04:14:02.075Z,10.52
2022-10-19T04:16:30.696Z,10.57
2022-10-19T04:18:58.241Z,10.60
2022-10-19T04:21:36.427Z,10.67
2022-10-19T04:24:06.883Z,10.74
2022-10-19T04:26:38.115Z,10.83
2022-10-19T04:29:05.193Z,10.87
2022-10-19T04:31:31.865Z,10.94
2022-10-19T04:33:58.542Z,11.05
2022-10-19T04:36:25.139Z,11.04
2022-10-19T04:38:52.342Z,10.99
2022-10-19T04:41:21.147Z,10.98
2022-10-19T04:43:49.188Z,10.95
2022-10-19T04:46:18.569Z,10.96
2022-10-19T04:48:46.749Z,10.93
2022-10-19T04:51:14.846Z,10.91
2022-10-19T04:53:42.551Z,10.94
2022-10-19T04:56:14.696Z,10.95
2022-10-19T04:58:41.588Z,11.21
2022-10-19T05:01:16.247Z,11.13
2022-10-19T05:03:43.797Z,11.13
2022-10-19T05:06:11.550Z,11.17
2022-10-19T05:08:39.136Z,11.19
2022-10-19T05:11:11.969Z,11.25
2022-10-19T05:13:38.560Z,11.30
2022-10-19T05:16:07.033Z,11.34
2022-10-19T05:18:34.591Z,11.34
2022-10-19T05:21:09.668Z,11.39
2022-10-19T05:23:36.664Z,11.42
2022-10-19T05:26:06.082Z,11.50
2022-10-19T05:28:33.142Z,11.52
2022-10-19T05:31:14.394Z,11.53
2022-10-19T05:33:41.928Z,11.54
2022-10-19T05:36:14.565Z,11.50
2022-10-19T05:38:42.290Z,11.49
2022-10-19T05:41:09.362Z,11.46
2022-10-19T05:43:36.066Z,11.43
2022-10-19T05:46:05.010Z,11.45
2022-10-19T05:48:34.976Z,11.53
2022-10-19T05:51:03.018Z,11.59
2022-10-19T05:53:29.917Z,11.75
2022-10-19T05:55:57.175Z,11.95
2022-10-19T05:58:24.482Z,12.08
2022-10-19T06:00:56.504Z,12.17
2022-10-19T06:03:24.395Z,12.24
2022-10-19T06:05:52.545Z,12.30
2022-10-19T06:08:20.578Z,12.36
2022-10-19T06:10:48.499Z,12.41
2022-10-19T06:13:16.736Z,12.51
2022-10-19T06:15:43.610Z,12.59
2022-10-19T06:18:12.592Z,12.66
2022-10-19T06:20:40.986Z,12.74
2022-10-19T06:23:09.035Z,12.80
2022-10-19T06:25:36.313Z,12.90
2022-10-19T06:28:03.962Z,12.96
2022-10-19T06:30:30.677Z,13.01
2022-10-19T06:32:58.963Z,13.14
2022-10-19T06:35:25.667Z,13.26
2022-10-19T06:37:52.284Z,13.42
2022-10-19T06:40:19.002Z,13.58
2022-10-19T06:42:45.970Z,13.77
2022-10-19T06:45:12.771Z,13.76
2022-10-19T06:47:39.611Z,13.68
2022-10-19T06:50:07.585Z,13.63
2022-10-19T06:52:35.660Z,13.64
2022-10-19T06:55:02.692Z,13.76
2022-10-19T06:57:29.593Z,13.86
2022-10-19T06:59:56.317Z,13.91
2022-10-19T07:02:24.048Z,13.89
2022-10-19T07:04:50.667Z,13.82
2022-10-19T07:07:19.531Z,13.89
2022-10-19T07:09:48.279Z,14.01
2022-10-19T07:12:14.890Z,14.21
2022-10-19T07:14:41.539Z,14.27
2022-10-19T07:17:11.619Z,14.37
2022-10-19T07:19:40.970Z,14.52
2022-10-19T07:22:07.608Z,14.64
2022-10-19T07:24:34.381Z,14.84
2022-10-19T07:27:03.866Z,15.16
2022-10-19T07:29:30.530Z,15.11
2022-10-19T07:31:57.253Z,15.03
2022-10-19T07:34:25.513Z,14.94
2022-10-19T07:36:54.964Z,14.89
2022-10-19T07:39:21.686Z,14.83
2022-10-19T07:41:48.612Z,14.74
2022-10-19T07:44:16.552Z,14.67
2022-10-19T07:46:46.282Z,14.88
2022-10-19T07:49:16.588Z,15.24
2022-10-19T07:51:43.310Z,16.06
2022-10-19T07:54:09.919Z,16.04
2022-10-19T07:56:36.954Z,16.82
2022-10-19T07:59:05.468Z,18.73
2022-10-19T08:01:35.172Z,19.68
2022-10-19T08:06:49.037Z,21.83
2022-10-19T08:09:33.462Z,22.56
2022-10-19T08:12:02.370Z,23.35
2022-10-19T08:14:29.060Z,23.83
2022-10-19T08:16:55.695Z,23.71
2022-10-19T08:19:25.095Z,22.36
2022-10-19T08:21:51.777Z,22.50
2022-10-19T08:24:19.695Z,23.59
2022-10-19T08:26:46.762Z,24.23
2022-10-19T08:29:19.131Z,24.00
2022-10-19T08:31:47.289Z,24.81
2022-10-19T08:34:14.720Z,25.61
2022-10-19T08:39:09.977Z,23.54
2022-10-19T08:42:07.250Z,24.79
2022-10-19T08:44:39.652Z,24.61
2022-10-19T08:47:28.040Z,24.98
2022-10-19T08:49:55.991Z,24.74
2022-10-19T08:52:32.085Z,24.40
2022-10-19T08:55:04.700Z,25.02
2022-10-19T08:58:05.294Z,25.81
2022-10-19T09:00:53.750Z,25.85
2022-10-19T09:03:56.873Z,26.65
2022-10-19T09:06:44.625Z,26.33
2022-10-19T09:09:14.175Z,26.90
2022-10-19T09:11:47.209Z,27.82
2022-10-19T09:14:31.238Z,26.77
2022-10-19T09:17:16.413Z,27.74
2022-10-19T09:19:44.504Z,27.70
2022-10-19T09:22:21.512Z,28.78
2022-10-19T09:24:54.558Z,29.03
2022-10-19T09:27:26.609Z,28.53
2022-10-19T09:29:58.857Z,29.49
2022-10-19T09:32:38.588Z,29.52
2022-10-19T09:35:41.182Z,27.78
2022-10-19T09:38:11.028Z,25.84
2022-10-19T09:40:37.612Z,24.95
2022-10-19T09:43:20.577Z,23.79
2022-10-19T09:46:19.389Z,22.58
2022-10-19T09:48:55.288Z,22.11
2022-10-19T09:51:24.453Z,22.88
2022-10-19T09:53:53.670Z,25.80
2022-10-19T09:56:26.034Z,28.05
2022-10-19T09:58:57.216Z,29.20
2022-10-19T10:01:40.151Z,25.95
2022-10-19T10:04:14.412Z,23.40
2022-10-19T10:06:43.044Z,23.18
2022-10-19T10:09:23.659Z,26.30
2022-10-19T10:11:51.450Z,27.91
2022-10-19T10:14:26.865Z,28.96
2022-10-19T10:17:04.698Z,29.35
2022-10-19T10:19:33.486Z,30.36
2022-10-19T10:22:00.494Z,30.70
2022-10-19T10:24:31.998Z,30.90
2022-10-19T10:27:00.996Z,30.71
2022-10-19T10:29:34.722Z,30.44
2022-10-19T10:32:01.310Z,29.99
2022-10-19T10:34:50.064Z,30.10
2022-10-19T10:37:31.355Z,30.78
2022-10-19T10:40:01.959Z,31.38
2022-10-19T10:42:46.304Z,31.19
2022-10-19T10:45:44.342Z,31.79
2022-10-19T10:48:42.958Z,31.57
2022-10-19T10:51:37.429Z,32.74
2022-10-19T10:54:25.506Z,33.01
2022-10-19T10:57:06.872Z,32.54
2022-10-19T10:59:43.176Z,32.10
2022-10-19T11:02:37.068Z,31.85
2022-10-19T11:05:10.864Z,31.26
2022-10-19T11:07:43.851Z,32.59
2022-10-19T11:10:31.467Z,29.59
2022-10-19T11:13:16.051Z,29.59
2022-10-19T11:16:00.659Z,30.92
2022-10-19T11:18:36.424Z,31.24
2022-10-19T11:21:11.534Z,31.99
2022-10-19T11:23:59.653Z,31.00
2022-10-19T11:27:02.709Z,31.39
2022-10-19T11:29:46.543Z,31.78
2022-10-19T11:32:27.163Z,31.81
2022-10-19T11:35:42.391Z,37.30
2022-10-19T11:38:32.614Z,40.01
2022-10-19T11:41:19.295Z,35.44
2022-10-19T11:44:07.402Z,31.25
2022-10-19T11:47:11.166Z,33.85
2022-10-19T11:50:00.545Z,32.36
2022-10-19T11:52:46.480Z,37.06
2022-10-19T11:55:36.420Z,36.79
2022-10-19T11:58:18.597Z,37.70
2022-10-19T12:00:57.295Z,39.46
2022-10-19T12:03:45.756Z,37.84
2022-10-19T12:06:44.788Z,39.23
2022-10-19T12:09:29.793Z,33.92
2022-10-19T12:12:05.332Z,34.06
2022-10-19T12:14:37.150Z,37.91
2022-10-19T12:19:52.812Z,40.22
2022-10-19T12:22:24.135Z,39.40
2022-10-19T12:24:55.405Z,40.78
2022-10-19T12:27:32.466Z,40.29
2022-10-19T12:30:13.375Z,40.69
2022-10-19T12:32:57.727Z,40.84
2022-10-19T12:35:52.441Z,40.97
2022-10-19T12:38:26.422Z,40.10
2022-10-19T12:40:58.950Z,38.36
2022-10-19T12:43:56.746Z,39.31
2022-10-19T12:47:00.811Z,40.37
2022-10-19T12:49:30.764Z,40.52
2022-10-19T12:51:59.741Z,40.07
2022-10-19T12:54:33.002Z,40.60
2022-10-19T12:57:02.029Z,39.93
2022-10-19T12:59:36.799Z,40.56
2022-10-19T13:02:20.197Z,39.28
2022-10-19T13:04:53.306Z,39.68
2022-10-19T13:07:20.562Z,40.09
2022-10-19T13:09:48.811Z,39.55
2022-10-19T13:12:19.453Z,39.57
2022-10-19T13:15:04.784Z,39.93
2022-10-19T13:17:34.678Z,40.28
2022-10-19T13:20:13.398Z,38.96
2022-10-19T13:22:46.760Z,38.88
2022-10-19T13:25:16.855Z,38.60
2022-10-19T13:27:44.523Z,37.48
2022-10-19T13:30:35.896Z,38.43
2022-10-19T13:33:31.446Z,38.92
2022-10-19T13:36:00.874Z,38.64
2022-10-19T13:38:27.711Z,37.02
2022-10-19T13:41:21.643Z,36.29
2022-10-19T13:44:10.302Z,33.05
2022-10-19T13:47:19.697Z,31.56
2022-10-19T13:50:15.213Z,31.49
2022-10-19T13:53:00.621Z,30.87
2022-10-19T13:55:54.640Z,30.58
2022-10-19T13:58:47.266Z,30.70
2022-10-19T14:01:16.953Z,30.07
2022-10-19T14:04:00.190Z,30.18
2022-10-19T14:06:43.579Z,30.30
2022-10-19T14:09:24.790Z,30.13
2022-10-19T14:12:04.397Z,30.13
2022-10-19T14:14:31.179Z,30.20
2022-10-19T14:17:04.345Z,29.87
2022-10-19T14:19:43.687Z,28.67
2022-10-19T14:22:36.186Z,29.04
2022-10-19T14:25:20.611Z,28.01
2022-10-19T14:27:50.443Z,28.73
2022-10-19T14:30:29.190Z,28.20
2022-10-19T14:32:59.449Z,27.86
2022-10-19T14:35:36.408Z,27.48
2022-10-19T14:38:06.198Z,27.01
2022-10-19T14:40:37.783Z,27.42
2022-10-19T14:43:34.590Z,26.89
2022-10-19T14:46:07.479Z,25.93
2022-10-19T14:48:36.569Z,25.14
2022-10-19T14:51:10.495Z,24.99
2022-10-19T14:53:42.145Z,25.19
2022-10-19T14:56:14.523Z,24.70
2022-10-19T14:59:07.260Z,24.08
2022-10-19T15:01:35.414Z,24.23
2022-10-19T15:04:02.501Z,24.16
2022-10-19T15:06:33.241Z,23.12
2022-10-19T15:09:03.525Z,22.79
2022-10-19T15:11:37.882Z,21.33
2022-10-19T15:14:14.944Z,20.42
2022-10-19T15:16:58.514Z,19.80
2022-10-19T15:19:28.218Z,19.54
2022-10-19T15:22:13.568Z,19.34
2022-10-19T15:24:55.544Z,19.00
2022-10-19T15:27:28.906Z,18.65
2022-10-19T15:30:02.112Z,18.33
2022-10-19T15:32:38.482Z,18.25
2022-10-19T15:35:12.053Z,18.00
2022-10-19T15:37:43.272Z,17.80
2022-10-19T15:40:20.243Z,17.64
2022-10-19T15:42:48.817Z,17.45
2022-10-19T15:45:37.647Z,17.29
2022-10-19T15:48:10.401Z,17.14
2022-10-19T15:50:42.742Z,16.92
2022-10-19T15:53:09.757Z,16.82
2022-10-19T15:55:36.624Z,16.73
2022-10-19T15:58:03.288Z,16.57
2022-10-19T16:00:30.883Z,16.54
2022-10-19T16:02:57.639Z,16.54
2022-10-19T16:05:24.482Z,16.53
2022-10-19T16:07:51.446Z,16.39
2022-10-19T16:10:21.272Z,16.32
2022-10-19T16:12:48.236Z,16.38
2022-10-19T16:15:22.008Z,16.40
2022-10-19T16:17:52.305Z,16.39
2022-10-19T16:20:19.231Z,16.39
2022-10-19T16:22:46.879Z,16.40
2022-10-19T16:25:14.250Z,16.40
2022-10-19T16:27:41.174Z,16.45
2022-10-19T16:30:08.539Z,16.50
2022-10-19T16:32:35.317Z,16.51
2022-10-19T16:35:02.059Z,16.52
2022-10-19T16:37:28.642Z,16.48
2022-10-19T16:39:55.263Z,16.39
2022-10-19T16:42:23.747Z,16.35
2022-10-19T16:44:52.997Z,16.36
2022-10-19T16:47:20.181Z,16.33
2022-10-19T16:49:46.791Z,16.40
2022-10-19T16:52:14.402Z,16.33
2022-10-19T16:54:41.035Z,16.31
2022-10-19T16:57:09.952Z,16.35
2022-10-19T16:59:36.886Z,16.33
2022-10-19T17:02:03.504Z,16.33
2022-10-19T17:04:30.161Z,16.25
2022-10-19T17:06:57.607Z,16.15
2022-10-19T17:12:12.660Z,16.09
2022-10-19T17:14:41.199Z,15.91
2022-10-19T17:17:08.814Z,15.80
2022-10-19T17:19:36.499Z,15.77
2022-10-19T17:22:05.161Z,15.74
2022-10-19T17:24:32.397Z,15.76
2022-10-19T17:27:02.836Z,15.76
2022-10-19T17:29:29.703Z,15.86
2022-10-19T17:31:56.461Z,15.83
2022-10-19T17:34:23.067Z,15.70
2022-10-19T17:36:50.032Z,15.62
2022-10-19T17:39:27.225Z,15.57
2022-10-19T17:42:01.386Z,15.53
2022-10-19T17:44:30.479Z,15.50
2022-10-19T17:46:57.170Z,15.52
2022-10-19T17:49:23.820Z,15.47
2022-10-19T17:51:53.170Z,15.45
2022-10-19T17:54:19.821Z,15.40
2022-10-19T17:56:46.616Z,15.33
2022-10-19T17:59:13.374Z,15.14
2022-10-19T18:01:40.332Z,14.99
2022-10-19T18:04:07.121Z,14.80
2022-10-19T18:06:36.575Z,14.66
2022-10-19T18:09:06.238Z,14.61
2022-10-19T18:11:37.264Z,14.50
2022-10-19T18:14:05.674Z,14.39
2022-10-19T18:16:42.278Z,14.29
2022-10-19T18:19:09.323Z,14.17
2022-10-19T18:21:38.941Z,14.08
2022-10-19T18:24:08.192Z,14.04
2022-10-19T18:26:37.035Z,14.01
2022-10-19T18:29:11.784Z,13.95
2022-10-19T18:31:39.592Z,13.84
2022-10-19T18:34:08.323Z,13.76
2022-10-19T18:36:35.375Z,13.79
2022-10-19T18:39:04.018Z,13.83
2022-10-19T18:41:30.863Z,13.86
2022-10-19T18:44:01.375Z,13.87
2022-10-19T18:46:28.051Z,13.86
2022-10-19T18:48:54.719Z,13.80
2022-10-19T18:51:23.314Z,13.84
2022-10-19T18:53:50.414Z,13.84
2022-10-19T18:56:19.382Z,13.79
2022-10-19T18:58:47.271Z,13.77
2022-10-19T19:01:18.237Z,13.78
2022-10-19T19:03:47.372Z,13.83
2022-10-19T19:06:19.764Z,13.82
2022-10-19T19:08:46.782Z,13.72
2022-10-19T19:11:14.661Z,13.63
2022-10-19T19:13:42.708Z,13.52
2022-10-19T19:16:10.099Z,13.64
2022-10-19T19:18:36.807Z,13.58
2022-10-19T19:21:12.765Z,13.66
2022-10-19T19:23:39.525Z,13.66
2022-10-19T19:26:07.525Z,13.73
2022-10-19T19:28:36.564Z,13.68
2022-10-19T19:31:07.617Z,13.61
2022-10-19T19:33:34.491Z,13.60
2022-10-19T19:36:05.358Z,13.65
2022-10-19T19:38:32.554Z,13.60
2022-10-19T19:40:59.299Z,13.55
2022-10-19T19:43:25.921Z,13.54
2022-10-19T19:46:06.332Z,13.51
2022-10-19T19:48:37.065Z,13.58
2022-10-19T19:51:04.611Z,13.58
2022-10-19T19:53:31.548Z,13.54
2022-10-19T19:55:58.332Z,13.47
2022-10-19T19:58:25.355Z,13.46
2022-10-19T20:00:51.973Z,13.47
2022-10-19T20:03:19.138Z,13.47
2022-10-19T20:05:46.095Z,13.47
2022-10-19T20:08:12.698Z,13.45
2022-10-19T20:10:41.223Z,13.50
2022-10-19T20:13:08.017Z,13.51
2022-10-19T20:15:38.462Z,13.56
2022-10-19T20:18:06.029Z,13.61
2022-10-19T20:20:32.814Z,13.50
2022-10-19T20:22:59.480Z,13.45
2022-10-19T20:25:26.383Z,13.48
2022-10-19T20:27:52.986Z,13.53
2022-10-19T20:30:19.999Z,13.57
2022-10-19T20:32:46.697Z,13.65
2022-10-19T20:35:13.279Z,13.70
2022-10-19T20:37:40.299Z,13.80
2022-10-19T20:40:08.909Z,13.81
2022-10-19T20:42:36.258Z,13.78
2022-10-19T20:45:05.477Z,13.73
2022-10-19T20:47:32.213Z,13.69
2022-10-19T20:49:58.893Z,13.63
2022-10-19T20:52:25.623Z,13.66
2022-10-19T20:54:52.241Z,13.48
2022-10-19T20:57:18.850Z,13.54
2022-10-19T20:59:45.740Z,13.53
2022-10-19T21:02:12.427Z,13.49
2022-10-19T21:04:39.195Z,13.48
2022-10-19T21:07:05.878Z,13.45
2022-10-19T21:09:32.717Z,13.36
2022-10-19T21:12:01.127Z,13.36
2022-10-19T21:14:29.169Z,13.32
2022-10-19T21:16:57.595Z,13.27
2022-10-19T21:19:26.251Z,13.33
2022-10-19T21:21:55.684Z,13.11
2022-10-19T21:24:28.106Z,12.97
2022-10-19T21:26:54.824Z,12.90
2022-10-19T21:29:21.748Z,12.63
2022-10-19T21:31:50.326Z,12.69
2022-10-19T21:34:19.738Z,12.50
2022-10-19T21:36:46.744Z,12.52
2022-10-19T21:39:13.420Z,12.51
2022-10-19T21:41:40.160Z,12.50
2022-10-19T21:44:06.781Z,12.41
2022-10-19T21:46:33.500Z,12.27
2022-10-19T21:49:00.218Z,12.28
2022-10-19T21:51:48.798Z,12.26
2022-10-19T21:54:18.709Z,12.18
2022-10-19T21:56:46.432Z,12.13
2022-10-19T21:59:13.712Z,12.22
2022-10-19T22:01:41.584Z,12.16
2022-10-19T22:04:12.759Z,12.08
2022-10-19T22:06:39.665Z,12.02
2022-10-19T22:09:08.127Z,12.01
2022-10-19T22:11:34.857Z,12.06
2022-10-19T22:14:03.094Z,12.01
2022-10-19T22:16:30.988Z,12.06
2022-10-19T22:18:58.018Z,12.11
2022-10-19T22:21:30.017Z,11.98
2022-10-19T22:24:02.048Z,11.89
2022-10-19T22:26:34.978Z,11.77
2022-10-19T22:29:01.601Z,11.85
2022-10-19T22:31:30.251Z,11.89
2022-10-19T22:33:56.957Z,11.94
2022-10-19T22:36:23.619Z,11.90
2022-10-19T22:38:50.318Z,11.96
2022-10-19T22:41:16.993Z,11.99
2022-10-19T22:43:43.714Z,11.99
2022-10-19T22:46:10.464Z,11.96
2022-10-19T22:48:37.131Z,11.89
2022-10-19T22:51:03.881Z,11.95
2022-10-19T22:53:30.533Z,11.88
2022-10-19T22:55:57.174Z,11.96
2022-10-19T22:58:23.889Z,11.91
2022-10-19T23:01:05.296Z,11.89
2022-10-19T23:03:32.275Z,11.85
2022-10-19T23:05:58.890Z,11.87
2022-10-19T23:08:25.815Z,11.79
2022-10-19T23:10:52.625Z,11.81
2022-10-19T23:13:19.342Z,11.75
2022-10-19T23:15:46.011Z,11.68
2022-10-19T23:18:13.590Z,11.71
2022-10-19T23:20:40.312Z,11.70
2022-10-19T23:23:07.155Z,11.67
2022-10-19T23:25:33.974Z,11.63
2022-10-19T23:28:00.774Z,11.62
2022-10-19T23:30:27.427Z,11.55
2022-10-19T23:32:54.035Z,11.55
2022-10-19T23:35:20.669Z,11.65
2022-10-19T23:37:47.332Z,11.62
2022-10-19T23:40:13.972Z,11.62
2022-10-19T23:42:40.602Z,11.62
2022-10-19T23:45:07.678Z,11.58
2022-10-19T23:47:34.516Z,11.54
2022-10-19T23:50:01.451Z,11.63
2022-10-19T23:52:28.138Z,11.53
2022-10-19T23:54:54.795Z,11.55
2022-10-19T23:57:21.422Z,11.65
2022-10-19T23:59:48.079Z,11.67
